BWI weather

Baltimore/Washington International Thurgood Marshall Airport
Baltimore, Maryland, United States

Public forecast

Using degrees Fahrenheit for public forecast. Weather courtesy of forecast.io.

METAR (pilot weather report)

Retrieved 2017/11/24 12:54 UTC (39 minutes ago):

KBWI 241254Z 00000KT 10SM FEW008 M01/M03 A3009 RMK AO2 SLP190 FU FEW008 FU PLUME NE T10111033

TAF (pilot weather forecast)

Retrieved 2017/11/24 12:42 UTC (51 minutes ago):

TAF KBWI 241141Z 2412/2518 VRB04KT P6SM SKC FM241900 18006KT P6SM SKC FM251700 24005KT P6SM SCT110